SHU5624 UHHH-UHSS
Flight info
| Callsign | SHU5624 |
|---|---|
| Flight time | 0h 37m |
| Altitude | 33000 |
| Route | NEBES4R NEBES DCT KELUL KELUL4V |
| Aircraft | A319/M-SDE3FGHIRWY/LB1 |
Departure
| Time | 2026-05-07 20:30 |
|---|---|
| Airport | Khabarovsk Novy Airport (UHHH) |
Arrival
| Time | 2026-05-07 21:07 |
|---|---|
| Airport | Yuzhno-Sakhalinsk International Airport (UHSS) |
| Time | Latitude | Longitude | Altitude | Speed | Heading |
|---|---|---|---|---|---|
| 2026-05-07 18:46 | 48.52357 | 135.16961 | 247 ft | 0 kts | 42° |
| 2026-05-07 19:24 | 48.52362 | 135.16968 | 247 ft | 3 kts | 42° |
| 2026-05-07 19:25 | 48.52374 | 135.17008 | 247 ft | 5 kts | 82° |
| 2026-05-07 19:25 | 48.52353 | 135.17080 | 247 ft | 10 kts | 120° |
| 2026-05-07 19:25 | 48.52347 | 135.17103 | 247 ft | 0 kts | 108° |
| 2026-05-07 19:25 | 48.52346 | 135.17117 | 247 ft | 3 kts | 96° |
| 2026-05-07 19:26 | 48.52382 | 135.17184 | 247 ft | 14 kts | 40° |
| 2026-05-07 19:26 | 48.52412 | 135.17225 | 246 ft | 0 kts | 43° |
| 2026-05-07 19:26 | 48.52424 | 135.17242 | 246 ft | 6 kts | 43° |
| 2026-05-07 19:26 | 48.52477 | 135.17316 | 246 ft | 13 kts | 43° |
| 2026-05-07 19:27 | 48.52550 | 135.17418 | 245 ft | 15 kts | 41° |
| 2026-05-07 19:27 | 48.52610 | 135.17498 | 244 ft | 12 kts | 41° |
| 2026-05-07 19:27 | 48.52685 | 135.17569 | 244 ft | 13 kts | 2° |
| 2026-05-07 19:27 | 48.52772 | 135.17531 | 243 ft | 14 kts | 22° |
| 2026-05-07 19:28 | 48.52824 | 135.17598 | 243 ft | 0 kts | 41° |
| 2026-05-07 19:32 | 48.52826 | 135.17601 | 243 ft | 2 kts | 41° |
| 2026-05-07 19:32 | 48.52873 | 135.17663 | 243 ft | 15 kts | 41° |
| 2026-05-07 19:32 | 48.52931 | 135.17775 | 244 ft | 9 kts | 86° |
| 2026-05-07 19:33 | 48.52917 | 135.17871 | 244 ft | 11 kts | 66° |
| 2026-05-07 19:33 | 48.52959 | 135.17905 | 245 ft | 0 kts | 306° |
| 2026-05-07 19:40 | 48.52967 | 135.17887 | 245 ft | 6 kts | 305° |
| 2026-05-07 19:40 | 48.52965 | 135.17815 | 244 ft | 8 kts | 233° |
| 2026-05-07 19:41 | 48.52922 | 135.17818 | 244 ft | 0 kts | 135° |
| 2026-05-07 19:41 | 48.52919 | 135.17822 | 244 ft | 1 kts | 135° |
| 2026-05-07 19:41 | 48.52911 | 135.17834 | 244 ft | 2 kts | 135° |
| 2026-05-07 19:41 | 48.52904 | 135.17844 | 244 ft | 0 kts | 134° |
| 2026-05-07 19:47 | 48.52902 | 135.17845 | 244 ft | 1 kts | 147° |
| 2026-05-07 19:47 | 48.52910 | 135.17783 | 244 ft | 16 kts | 346° |
| 2026-05-07 19:47 | 48.52999 | 135.17864 | 245 ft | 10 kts | 43° |
| 2026-05-07 19:48 | 48.52986 | 135.17939 | 245 ft | 0 kts | 133° |
| 2026-05-07 19:54 | 48.52985 | 135.17940 | 245 ft | 0 kts | 133° |
| 2026-05-07 19:54 | 48.52983 | 135.17943 | 245 ft | 1 kts | 133° |
| 2026-05-07 19:54 | 48.52949 | 135.17946 | 245 ft | 9 kts | 204° |
| 2026-05-07 19:55 | 48.52924 | 135.17906 | 244 ft | 0 kts | 229° |
| 2026-05-07 19:55 | 48.52907 | 135.17865 | 244 ft | 9 kts | 253° |
| 2026-05-07 19:55 | 48.52916 | 135.17825 | 244 ft | 1 kts | 307° |
| 2026-05-07 19:55 | 48.52948 | 135.17807 | 244 ft | 9 kts | 10° |
| 2026-05-07 19:56 | 48.52999 | 135.17863 | 245 ft | 9 kts | 45° |
| 2026-05-07 19:56 | 48.53051 | 135.17937 | 246 ft | 12 kts | 41° |
| 2026-05-07 19:56 | 48.53065 | 135.17956 | 246 ft | 0 kts | 41° |
| 2026-05-07 19:56 | 48.53068 | 135.17959 | 246 ft | 2 kts | 41° |
| 2026-05-07 19:57 | 48.53101 | 135.18004 | 246 ft | 9 kts | 42° |
| 2026-05-07 19:57 | 48.53124 | 135.18035 | 247 ft | 0 kts | 43° |
| 2026-05-07 19:57 | 48.53140 | 135.18058 | 247 ft | 8 kts | 43° |
| 2026-05-07 19:57 | 48.53145 | 135.18065 | 247 ft | 0 kts | 43° |
| 2026-05-07 20:19 | 48.53170 | 135.18099 | 247 ft | 11 kts | 43° |
| 2026-05-07 20:19 | 48.53218 | 135.18195 | 248 ft | 12 kts | 77° |
| 2026-05-07 20:20 | 48.53219 | 135.18223 | 248 ft | 1 kts | 85° |
| 2026-05-07 20:20 | 48.53237 | 135.18246 | 249 ft | 4 kts | 330° |
| 2026-05-07 20:20 | 48.53223 | 135.18211 | 248 ft | 7 kts | 233° |
| 2026-05-07 20:20 | 48.53180 | 135.18113 | 247 ft | 13 kts | 226° |
| 2026-05-07 20:21 | 48.53108 | 135.18017 | 246 ft | 15 kts | 222° |
| 2026-05-07 20:21 | 48.53008 | 135.17879 | 245 ft | 5 kts | 222° |
| 2026-05-07 20:21 | 48.53007 | 135.17878 | 245 ft | 0 kts | 222° |
| 2026-05-07 20:24 | 48.53001 | 135.17858 | 245 ft | 8 kts | 264° |
| 2026-05-07 20:25 | 48.53035 | 135.17887 | 245 ft | 11 kts | 59° |
| 2026-05-07 20:25 | 48.53047 | 135.17916 | 245 ft | 3 kts | 58° |
| 2026-05-07 20:25 | 48.53084 | 135.17982 | 246 ft | 13 kts | 42° |
| 2026-05-07 20:25 | 48.53101 | 135.18005 | 246 ft | 3 kts | 42° |
| 2026-05-07 20:26 | 48.53149 | 135.18071 | 247 ft | 14 kts | 42° |
| 2026-05-07 20:26 | 48.53228 | 135.18205 | 248 ft | 18 kts | 31° |
| 2026-05-07 20:26 | 48.53248 | 135.18172 | 248 ft | 9 kts | 211° |
| 2026-05-07 20:26 | 48.53172 | 135.18106 | 247 ft | 0 kts | 223° |
| 2026-05-07 20:27 | 48.53165 | 135.18096 | 247 ft | 3 kts | 223° |
| 2026-05-07 20:27 | 48.53120 | 135.18034 | 247 ft | 15 kts | 223° |
| 2026-05-07 20:27 | 48.53028 | 135.17908 | 245 ft | 19 kts | 222° |
| 2026-05-07 20:27 | 48.52917 | 135.17826 | 244 ft | 19 kts | 152° |
| 2026-05-07 20:28 | 48.52828 | 135.17972 | 244 ft | 19 kts | 131° |
| 2026-05-07 20:28 | 48.52808 | 135.18131 | 245 ft | 16 kts | 56° |
| 2026-05-07 20:28 | 48.52888 | 135.18242 | 246 ft | 16 kts | 43° |
| 2026-05-07 20:28 | 48.52967 | 135.18354 | 247 ft | 16 kts | 41° |
| 2026-05-07 20:29 | 48.53059 | 135.18506 | 249 ft | 21 kts | 78° |
| 2026-05-07 20:29 | 48.52982 | 135.18676 | 250 ft | 20 kts | 133° |
| 2026-05-07 20:29 | 48.52863 | 135.18650 | 247 ft | 22 kts | 223° |
| 2026-05-07 20:29 | 48.52609 | 135.18300 | 243 ft | 87 kts | 221° |
| 2026-05-07 20:30 | 48.51990 | 135.17457 | 249 ft | 150 kts | 222° |
| 2026-05-07 20:30 | 48.51152 | 135.16334 | 660 ft | 162 kts | 222° |
| 2026-05-07 20:30 | 48.50311 | 135.15207 | 1326 ft | 163 kts | 222° |
| 2026-05-07 20:30 | 48.49436 | 135.14034 | 1866 ft | 172 kts | 222° |
| 2026-05-07 20:31 | 48.48527 | 135.12813 | 2484 ft | 177 kts | 222° |
| 2026-05-07 20:31 | 48.47625 | 135.11588 | 3153 ft | 177 kts | 222° |
| 2026-05-07 20:31 | 48.46721 | 135.10351 | 3843 ft | 173 kts | 223° |
| 2026-05-07 20:31 | 48.45844 | 135.09141 | 4539 ft | 168 kts | 223° |
| 2026-05-07 20:32 | 48.44999 | 135.07973 | 5203 ft | 161 kts | 224° |
| 2026-05-07 20:32 | 48.44189 | 135.06848 | 5779 ft | 156 kts | 224° |
| 2026-05-07 20:32 | 48.43391 | 135.05737 | 6156 ft | 165 kts | 225° |
| 2026-05-07 20:32 | 48.42586 | 135.04266 | 6152 ft | 198 kts | 248° |
| 2026-05-07 20:33 | 48.42537 | 135.02152 | 6384 ft | 218 kts | 291° |
| 2026-05-07 20:33 | 48.43432 | 135.00250 | 6677 ft | 240 kts | 321° |
| 2026-05-07 20:33 | 48.44986 | 134.99226 | 7245 ft | 251 kts | 348° |
| 2026-05-07 20:33 | 48.46709 | 134.98723 | 8022 ft | 254 kts | 347° |
| 2026-05-07 20:34 | 48.48444 | 134.98158 | 8790 ft | 256 kts | 346° |
| 2026-05-07 20:34 | 48.50194 | 134.97566 | 9537 ft | 259 kts | 346° |
| 2026-05-07 20:34 | 48.51961 | 134.96960 | 10276 ft | 262 kts | 346° |
| 2026-05-07 20:34 | 48.53766 | 134.96343 | 10856 ft | 275 kts | 345° |
| 2026-05-07 20:35 | 48.55710 | 134.95681 | 11161 ft | 298 kts | 345° |
| 2026-05-07 20:35 | 48.57802 | 134.94970 | 11579 ft | 316 kts | 345° |
| 2026-05-07 20:35 | 48.59961 | 134.94245 | 12163 ft | 325 kts | 345° |
| 2026-05-07 20:35 | 48.62178 | 134.93508 | 12957 ft | 328 kts | 345° |
| 2026-05-07 20:36 | 48.64417 | 134.92768 | 13721 ft | 331 kts | 345° |
| 2026-05-07 20:36 | 48.66679 | 134.92031 | 14457 ft | 335 kts | 346° |
| 2026-05-07 20:36 | 48.69030 | 134.91862 | 15135 ft | 344 kts | 2° |
| 2026-05-07 20:36 | 48.71387 | 134.92708 | 15789 ft | 355 kts | 18° |
| 2026-05-07 20:37 | 48.73560 | 134.94562 | 16425 ft | 365 kts | 34° |
| 2026-05-07 20:37 | 48.75354 | 134.97338 | 17043 ft | 374 kts | 49° |
| 2026-05-07 20:37 | 48.76974 | 135.00467 | 17656 ft | 378 kts | 49° |
| 2026-05-07 20:37 | 48.78601 | 135.03630 | 18273 ft | 383 kts | 49° |
| 2026-05-07 20:38 | 48.80221 | 135.06785 | 18862 ft | 386 kts | 49° |
| 2026-05-07 20:38 | 48.81878 | 135.10015 | 19449 ft | 390 kts | 49° |
| 2026-05-07 20:38 | 48.83553 | 135.13272 | 20042 ft | 393 kts | 49° |
| 2026-05-07 20:38 | 48.85248 | 135.16555 | 20615 ft | 396 kts | 49° |
| 2026-05-07 20:39 | 48.86959 | 135.19866 | 21180 ft | 400 kts | 49° |
| 2026-05-07 20:39 | 48.88677 | 135.23198 | 21749 ft | 403 kts | 49° |
| 2026-05-07 20:39 | 48.90521 | 135.26785 | 22326 ft | 406 kts | 50° |
| 2026-05-07 20:39 | 48.97547 | 135.40533 | 24380 ft | 418 kts | 50° |
| 2026-05-07 20:40 | 49.04694 | 135.54564 | 26109 ft | 431 kts | 50° |
| 2026-05-07 20:40 | 49.12104 | 135.69235 | 27634 ft | 443 kts | 50° |
| 2026-05-07 20:40 | 49.19760 | 135.84314 | 29071 ft | 454 kts | 50° |
| 2026-05-07 20:40 | 49.27634 | 135.99704 | 30360 ft | 464 kts | 50° |
| 2026-05-07 20:41 | 49.35712 | 136.15463 | 31433 ft | 476 kts | 50° |
| 2026-05-07 20:41 | 49.43929 | 136.31524 | 32734 ft | 479 kts | 50° |
| 2026-05-07 20:41 | 49.49855 | 136.49404 | 32835 ft | 463 kts | 91° |
| 2026-05-07 20:41 | 49.45799 | 136.67111 | 32997 ft | 453 kts | 121° |
| 2026-05-07 20:42 | 49.40055 | 136.84419 | 32945 ft | 456 kts | 121° |
| 2026-05-07 20:42 | 49.28363 | 137.18860 | 32862 ft | 461 kts | 122° |
| 2026-05-07 20:43 | 49.16515 | 137.53307 | 32771 ft | 465 kts | 123° |
| 2026-05-07 20:43 | 49.04526 | 137.87631 | 32704 ft | 461 kts | 124° |
| 2026-05-07 20:44 | 48.92414 | 138.21895 | 32775 ft | 461 kts | 125° |
| 2026-05-07 20:44 | 48.80201 | 138.56043 | 32942 ft | 462 kts | 126° |
| 2026-05-07 20:45 | 48.67740 | 138.90378 | 32870 ft | 465 kts | 127° |
| 2026-05-07 20:45 | 48.55144 | 139.24606 | 32849 ft | 468 kts | 128° |
| 2026-05-07 20:46 | 48.42402 | 139.58824 | 32823 ft | 469 kts | 130° |
| 2026-05-07 20:46 | 48.29578 | 139.92814 | 32859 ft | 472 kts | 131° |
| 2026-05-07 20:47 | 48.16523 | 140.26994 | 32857 ft | 473 kts | 132° |
| 2026-05-07 20:47 | 48.03336 | 140.61029 | 32866 ft | 473 kts | 132° |
| 2026-05-07 20:47 | 47.96630 | 140.78130 | 32924 ft | 491 kts | 131° |
| 2026-05-07 20:48 | 47.89647 | 140.95933 | 32899 ft | 505 kts | 133° |
| 2026-05-07 20:48 | 47.87741 | 141.00758 | 32487 ft | 500 kts | 133° |
| 2026-05-07 20:48 | 47.86001 | 141.05193 | 31693 ft | 493 kts | 133° |
| 2026-05-07 20:48 | 47.84280 | 141.09566 | 30843 ft | 487 kts | 134° |
| 2026-05-07 20:49 | 47.82577 | 141.13867 | 29996 ft | 479 kts | 134° |
| 2026-05-07 20:49 | 47.80893 | 141.18116 | 29149 ft | 473 kts | 134° |
| 2026-05-07 20:49 | 47.79228 | 141.22310 | 28336 ft | 467 kts | 133° |
| 2026-05-07 20:49 | 47.77581 | 141.26439 | 27576 ft | 461 kts | 133° |
| 2026-05-07 20:50 | 47.75952 | 141.30508 | 26820 ft | 455 kts | 133° |
| 2026-05-07 20:50 | 47.74345 | 141.34514 | 26101 ft | 448 kts | 132° |
| 2026-05-07 20:50 | 47.72754 | 141.38466 | 25376 ft | 442 kts | 131° |
| 2026-05-07 20:50 | 47.71211 | 141.42292 | 24703 ft | 435 kts | 131° |
| 2026-05-07 20:51 | 47.69668 | 141.46123 | 24013 ft | 429 kts | 130° |
| 2026-05-07 20:51 | 47.68148 | 141.49897 | 23345 ft | 423 kts | 130° |
| 2026-05-07 20:51 | 47.66648 | 141.53622 | 22670 ft | 417 kts | 129° |
| 2026-05-07 20:51 | 47.65169 | 141.57286 | 21994 ft | 412 kts | 129° |
| 2026-05-07 20:52 | 47.63704 | 141.60906 | 21298 ft | 407 kts | 128° |
| 2026-05-07 20:52 | 47.62256 | 141.64474 | 20604 ft | 402 kts | 128° |
| 2026-05-07 20:52 | 47.60824 | 141.68004 | 19909 ft | 397 kts | 127° |
| 2026-05-07 20:52 | 47.59417 | 141.71472 | 19320 ft | 389 kts | 127° |
| 2026-05-07 20:53 | 47.58059 | 141.74817 | 18860 ft | 379 kts | 127° |
| 2026-05-07 20:53 | 47.56719 | 141.78112 | 18418 ft | 368 kts | 126° |
| 2026-05-07 20:53 | 47.55414 | 141.81323 | 17985 ft | 359 kts | 126° |
| 2026-05-07 20:53 | 47.54142 | 141.84443 | 17570 ft | 350 kts | 126° |
| 2026-05-07 20:54 | 47.52898 | 141.87486 | 17163 ft | 341 kts | 126° |
| 2026-05-07 20:54 | 47.51682 | 141.90456 | 16773 ft | 333 kts | 126° |
| 2026-05-07 20:54 | 47.50494 | 141.93356 | 16392 ft | 326 kts | 126° |
| 2026-05-07 20:54 | 47.49334 | 141.96190 | 16017 ft | 319 kts | 126° |
| 2026-05-07 20:55 | 47.48187 | 141.98989 | 15652 ft | 317 kts | 126° |
| 2026-05-07 20:55 | 47.47063 | 142.01724 | 15298 ft | 315 kts | 125° |
| 2026-05-07 20:55 | 47.45930 | 142.04477 | 14937 ft | 312 kts | 125° |
| 2026-05-07 20:55 | 47.44807 | 142.07206 | 14581 ft | 309 kts | 125° |
| 2026-05-07 20:56 | 47.43691 | 142.09914 | 14228 ft | 308 kts | 125° |
| 2026-05-07 20:56 | 47.42586 | 142.12602 | 13875 ft | 305 kts | 124° |
| 2026-05-07 20:56 | 47.41489 | 142.15269 | 13523 ft | 302 kts | 124° |
| 2026-05-07 20:56 | 47.40402 | 142.17907 | 13176 ft | 300 kts | 124° |
| 2026-05-07 20:57 | 47.39321 | 142.20521 | 12823 ft | 297 kts | 124° |
| 2026-05-07 20:57 | 47.38246 | 142.23116 | 12474 ft | 295 kts | 124° |
| 2026-05-07 20:57 | 47.37196 | 142.25653 | 12130 ft | 293 kts | 123° |
| 2026-05-07 20:57 | 47.36138 | 142.28202 | 11778 ft | 291 kts | 123° |
| 2026-05-07 20:58 | 47.35077 | 142.30746 | 11427 ft | 292 kts | 123° |
| 2026-05-07 20:58 | 47.34009 | 142.33301 | 11071 ft | 293 kts | 123° |
| 2026-05-07 20:58 | 47.32940 | 142.35865 | 10699 ft | 294 kts | 123° |
| 2026-05-07 20:58 | 47.31872 | 142.38433 | 10330 ft | 294 kts | 122° |
| 2026-05-07 20:59 | 47.30805 | 142.41000 | 9956 ft | 294 kts | 122° |
| 2026-05-07 20:59 | 47.29739 | 142.43563 | 9575 ft | 293 kts | 122° |
| 2026-05-07 20:59 | 47.28672 | 142.46127 | 9197 ft | 294 kts | 122° |
| 2026-05-07 20:59 | 47.27619 | 142.48656 | 8806 ft | 293 kts | 121° |
| 2026-05-07 21:00 | 47.26553 | 142.51212 | 8415 ft | 293 kts | 121° |
| 2026-05-07 21:00 | 47.25488 | 142.53755 | 8014 ft | 291 kts | 121° |
| 2026-05-07 21:00 | 47.24424 | 142.56291 | 7603 ft | 291 kts | 121° |
| 2026-05-07 21:00 | 47.23363 | 142.58818 | 7194 ft | 289 kts | 121° |
| 2026-05-07 21:01 | 47.22307 | 142.61332 | 6769 ft | 288 kts | 121° |
| 2026-05-07 21:01 | 47.21255 | 142.63841 | 6350 ft | 288 kts | 121° |
| 2026-05-07 21:01 | 47.20206 | 142.66339 | 5920 ft | 287 kts | 121° |
| 2026-05-07 21:01 | 47.19128 | 142.68803 | 5494 ft | 286 kts | 127° |
| 2026-05-07 21:02 | 47.17615 | 142.70592 | 5047 ft | 285 kts | 155° |
| 2026-05-07 21:02 | 47.15691 | 142.71278 | 4539 ft | 286 kts | 173° |
| 2026-05-07 21:02 | 47.13710 | 142.71642 | 3988 ft | 288 kts | 173° |
| 2026-05-07 21:02 | 47.11716 | 142.72032 | 3416 ft | 290 kts | 172° |
| 2026-05-07 21:03 | 47.09720 | 142.72277 | 3042 ft | 279 kts | 179° |
| 2026-05-07 21:03 | 47.07873 | 142.72242 | 3009 ft | 252 kts | 181° |
| 2026-05-07 21:03 | 47.06221 | 142.72179 | 3008 ft | 223 kts | 181° |
| 2026-05-07 21:03 | 47.04737 | 142.72138 | 2876 ft | 206 kts | 180° |
| 2026-05-07 21:04 | 47.03374 | 142.72105 | 2659 ft | 193 kts | 180° |
| 2026-05-07 21:04 | 47.02067 | 142.72074 | 2402 ft | 183 kts | 180° |
| 2026-05-07 21:04 | 47.00818 | 142.72043 | 2157 ft | 175 kts | 181° |
| 2026-05-07 21:04 | 46.99620 | 142.72013 | 1934 ft | 169 kts | 181° |
| 2026-05-07 21:05 | 46.98465 | 142.71985 | 1714 ft | 163 kts | 181° |
| 2026-05-07 21:05 | 46.97358 | 142.71959 | 1500 ft | 155 kts | 180° |
| 2026-05-07 21:05 | 46.96311 | 142.71934 | 1301 ft | 145 kts | 182° |
| 2026-05-07 21:05 | 46.95322 | 142.71909 | 1110 ft | 140 kts | 181° |
| 2026-05-07 21:06 | 46.94372 | 142.71886 | 932 ft | 138 kts | 181° |
| 2026-05-07 21:06 | 46.93419 | 142.71863 | 747 ft | 136 kts | 182° |
| 2026-05-07 21:06 | 46.92472 | 142.71841 | 571 ft | 135 kts | 180° |
| 2026-05-07 21:06 | 46.91532 | 142.71817 | 392 ft | 135 kts | 181° |
| 2026-05-07 21:07 | 46.90597 | 142.71794 | 215 ft | 134 kts | 181° |
| 2026-05-07 21:07 | 46.89679 | 142.71771 | 84 ft | 123 kts | 181° |
| 2026-05-07 21:07 | 46.89160 | 142.71758 | 79 ft | 10 kts | 180° |
| 2026-05-07 21:07 | 46.89131 | 142.71758 | 81 ft | 7 kts | 180° |
| 2026-05-07 21:08 | 46.89097 | 142.71802 | 79 ft | 5 kts | 127° |
| 2026-05-07 21:08 | 46.89084 | 142.71855 | 78 ft | 7 kts | 102° |
| 2026-05-07 21:08 | 46.89072 | 142.71962 | 77 ft | 12 kts | 110° |
| 2026-05-07 21:08 | 46.89008 | 142.72050 | 69 ft | 13 kts | 150° |
| 2026-05-07 21:09 | 46.88918 | 142.72097 | 77 ft | 14 kts | 175° |
| 2026-05-07 21:09 | 46.88864 | 142.72196 | 72 ft | 15 kts | 90° |
| 2026-05-07 21:09 | 46.88863 | 142.72260 | 76 ft | 0 kts | 90° |